createdAt,value
2019-03-27T00:00:33.473Z,12.63
2019-03-27T00:03:01.897Z,13.80
2019-03-27T00:05:30.341Z,16.93
2019-03-27T00:07:58.770Z,12.47
2019-03-27T00:10:27.196Z,13.00
2019-03-27T00:12:55.621Z,20.10
2019-03-27T00:15:24.057Z,17.62
2019-03-27T00:17:52.473Z,16.77
2019-03-27T00:20:21.477Z,19.55
2019-03-27T00:22:49.897Z,15.93
2019-03-27T00:25:18.412Z,15.70
2019-03-27T00:27:46.837Z,16.70
2019-03-27T00:30:16.164Z,11.88
2019-03-27T00:32:44.604Z,13.78
2019-03-27T00:35:13.185Z,11.25
2019-03-27T00:37:41.605Z,14.43
2019-03-27T00:40:10.738Z,12.45
2019-03-27T00:42:39.243Z,13.78
2019-03-27T00:45:09.423Z,14.55
2019-03-27T00:47:38.042Z,14.60
2019-03-27T00:50:08.104Z,13.22
2019-03-27T00:52:36.525Z,13.25
2019-03-27T00:55:07.458Z,19.87
2019-03-27T00:57:35.889Z,14.37
2019-03-27T01:00:07.390Z,18.23
2019-03-27T01:02:35.823Z,20.30
2019-03-27T01:05:05.900Z,14.50
2019-03-27T01:07:34.326Z,14.65
2019-03-27T01:10:02.754Z,17.48
2019-03-27T01:12:31.180Z,19.73
2019-03-27T01:14:59.601Z,19.60
2019-03-27T01:17:28.037Z,13.93
2019-03-27T01:19:56.469Z,15.80
2019-03-27T01:22:24.909Z,14.55
2019-03-27T01:24:53.340Z,17.10
2019-03-27T01:27:21.768Z,18.27
2019-03-27T01:29:50.196Z,18.10
2019-03-27T01:32:18.631Z,18.98
2019-03-27T01:34:47.056Z,16.35
2019-03-27T01:37:15.486Z,15.43
2019-03-27T01:39:43.916Z,18.62
2019-03-27T01:42:12.344Z,17.27
2019-03-27T01:44:40.773Z,20.40
2019-03-27T01:47:09.206Z,19.52
2019-03-27T01:49:37.629Z,16.97
2019-03-27T01:52:10.065Z,19.67
2019-03-27T01:54:39.165Z,19.10
2019-03-27T01:57:08.333Z,19.83
2019-03-27T01:59:36.757Z,18.50
2019-03-27T02:02:05.192Z,19.00
2019-03-27T02:04:33.616Z,22.55
2019-03-27T02:07:02.402Z,24.82
2019-03-27T02:09:30.829Z,22.30
2019-03-27T02:11:59.341Z,20.32
2019-03-27T02:14:27.874Z,16.17
2019-03-27T02:16:56.313Z,23.27
2019-03-27T02:19:24.746Z,16.73
2019-03-27T02:21:53.174Z,19.10
2019-03-27T02:24:21.594Z,21.70
2019-03-27T02:26:50.049Z,16.73
2019-03-27T02:29:18.477Z,22.60
2019-03-27T02:31:47.202Z,19.42
2019-03-27T02:34:15.625Z,19.65
2019-03-27T02:36:44.063Z,19.30
2019-03-27T02:39:12.496Z,16.30
2019-03-27T02:41:40.924Z,21.90
2019-03-27T02:44:09.366Z,21.35
2019-03-27T02:46:37.794Z,23.98
2019-03-27T02:49:06.580Z,18.73
2019-03-27T02:51:35.167Z,18.73
2019-03-27T02:54:03.626Z,20.77
2019-03-27T02:56:32.068Z,17.75
2019-03-27T02:59:00.566Z,22.25
2019-03-27T03:01:28.980Z,17.27
2019-03-27T03:03:57.444Z,18.98
2019-03-27T03:06:25.858Z,22.75
2019-03-27T03:08:54.301Z,16.40
2019-03-27T03:11:22.736Z,21.50
2019-03-27T03:13:51.170Z,19.42
2019-03-27T03:16:19.670Z,21.02
2019-03-27T03:18:48.111Z,21.93
2019-03-27T03:21:16.528Z,14.67
2019-03-27T03:23:44.961Z,16.95
2019-03-27T03:26:13.382Z,27.70
2019-03-27T03:28:42.150Z,24.43
2019-03-27T03:31:10.575Z,24.47
2019-03-27T03:33:39.023Z,19.42
2019-03-27T03:36:07.440Z,21.87
2019-03-27T03:38:35.885Z,21.27
2019-03-27T03:41:04.309Z,21.93
2019-03-27T03:43:32.749Z,19.70
2019-03-27T03:46:01.171Z,18.42
2019-03-27T03:48:29.611Z,19.37
2019-03-27T03:50:59.952Z,20.82
2019-03-27T03:53:30.326Z,25.35
2019-03-27T03:56:00.590Z,23.47
2019-03-27T03:58:30.573Z,21.20
2019-03-27T04:01:00.575Z,22.82
2019-03-27T04:03:32.230Z,24.92
2019-03-27T04:06:00.652Z,23.42
2019-03-27T04:08:29.082Z,22.22
2019-03-27T04:10:57.518Z,20.00
2019-03-27T04:13:25.947Z,24.47
2019-03-27T04:15:54.384Z,24.32
2019-03-27T04:18:22.813Z,21.45
2019-03-27T04:20:51.245Z,21.50
2019-03-27T04:23:19.664Z,21.80
2019-03-27T04:26:08.450Z,24.47
2019-03-27T04:28:18.270Z,21.30
2019-03-27T04:30:46.697Z,23.50
2019-03-27T04:33:15.302Z,19.70
2019-03-27T04:35:43.958Z,18.92
2019-03-27T04:38:12.385Z,18.75
2019-03-27T04:40:40.837Z,21.95
2019-03-27T04:43:09.249Z,22.17
2019-03-27T04:45:37.676Z,21.87
2019-03-27T04:48:06.425Z,22.90
2019-03-27T04:50:34.865Z,25.45
2019-03-27T04:53:03.286Z,24.15
2019-03-27T04:55:31.720Z,23.77
2019-03-27T04:58:00.158Z,26.50
2019-03-27T05:00:28.598Z,20.60
2019-03-27T05:02:57.950Z,24.52
2019-03-27T05:05:26.421Z,23.87
2019-03-27T05:07:55.197Z,26.07
2019-03-27T05:10:23.632Z,25.95
2019-03-27T05:12:52.062Z,20.83
2019-03-27T05:15:20.493Z,27.32
2019-03-27T05:17:48.921Z,22.90
2019-03-27T05:20:17.602Z,22.07
2019-03-27T05:22:46.029Z,19.80
2019-03-27T05:25:14.465Z,20.25
2019-03-27T05:27:42.902Z,21.20
2019-03-27T05:30:11.504Z,22.45
2019-03-27T05:32:39.961Z,23.65
2019-03-27T05:35:08.633Z,23.95
2019-03-27T05:37:37.078Z,21.85
2019-03-27T05:40:07.514Z,19.87
2019-03-27T05:42:35.950Z,24.77
2019-03-27T05:45:04.822Z,26.80
2019-03-27T05:47:33.267Z,22.17
2019-03-27T05:50:01.689Z,23.87
2019-03-27T05:52:30.126Z,22.60
2019-03-27T05:54:58.552Z,21.63
2019-03-27T05:57:27.004Z,21.20
2019-03-27T05:59:55.420Z,20.65
2019-03-27T06:02:23.860Z,21.45
2019-03-27T06:04:52.298Z,24.35
2019-03-27T06:07:20.731Z,24.02
2019-03-27T06:09:49.157Z,21.73
2019-03-27T06:12:17.594Z,22.33
2019-03-27T06:14:46.023Z,27.75
2019-03-27T06:17:14.458Z,26.65
2019-03-27T06:19:42.884Z,24.77
2019-03-27T06:22:11.337Z,26.02
2019-03-27T06:24:39.760Z,22.42
2019-03-27T06:27:08.192Z,22.30
2019-03-27T06:29:36.621Z,25.30
2019-03-27T06:32:05.085Z,22.42
2019-03-27T06:34:33.496Z,24.92
2019-03-27T06:37:01.948Z,26.45
2019-03-27T06:39:30.374Z,29.75
2019-03-27T06:41:58.812Z,21.27
2019-03-27T06:44:27.247Z,23.35
2019-03-27T06:46:55.665Z,26.57
2019-03-27T06:49:24.109Z,28.77
2019-03-27T06:51:52.534Z,25.95
2019-03-27T06:54:20.986Z,28.62
2019-03-27T06:56:50.312Z,27.05
2019-03-27T06:59:18.782Z,27.10
2019-03-27T07:01:47.215Z,26.70
2019-03-27T07:04:16.573Z,26.45
2019-03-27T07:06:47.750Z,25.77
2019-03-27T07:09:16.308Z,22.15
2019-03-27T07:11:44.797Z,24.30
2019-03-27T07:14:13.254Z,21.35
2019-03-27T07:16:41.702Z,22.82
2019-03-27T07:19:10.193Z,22.93
2019-03-27T07:21:38.613Z,21.10
2019-03-27T07:24:07.044Z,25.25
2019-03-27T07:26:35.478Z,18.82
2019-03-27T07:29:03.935Z,22.27
2019-03-27T07:31:32.437Z,21.07
2019-03-27T07:34:00.884Z,20.32
2019-03-27T07:36:29.314Z,19.15
2019-03-27T07:39:10.215Z,19.65
2019-03-27T07:41:27.889Z,19.00
2019-03-27T07:43:56.336Z,19.32
2019-03-27T07:46:24.761Z,18.90
2019-03-27T07:48:54.386Z,18.90
2019-03-27T07:51:23.102Z,17.45
2019-03-27T07:53:51.537Z,15.00
2019-03-27T07:56:20.034Z,15.70
2019-03-27T07:58:48.489Z,15.80
2019-03-27T08:01:16.920Z,17.32
2019-03-27T08:03:45.348Z,14.70
2019-03-27T08:06:13.783Z,14.18
2019-03-27T08:08:42.574Z,14.60
2019-03-27T08:11:11.013Z,14.85
2019-03-27T08:13:39.481Z,15.50
2019-03-27T08:16:08.025Z,12.78
2019-03-27T08:18:36.453Z,12.80
2019-03-27T08:21:04.885Z,15.70
2019-03-27T08:23:33.320Z,12.73
2019-03-27T08:26:01.863Z,15.50
2019-03-27T08:28:30.289Z,11.68
2019-03-27T08:30:58.716Z,17.50
2019-03-27T08:33:27.130Z,13.03
2019-03-27T08:35:55.566Z,11.83
2019-03-27T08:38:24.012Z,11.80
2019-03-27T08:40:52.444Z,10.48
2019-03-27T08:43:23.954Z,10.63
2019-03-27T08:45:51.013Z,11.28
2019-03-27T08:48:19.734Z,15.40
2019-03-27T08:50:48.181Z,13.60
2019-03-27T08:53:16.616Z,8.93
2019-03-27T08:55:45.041Z,11.43
2019-03-27T08:58:13.482Z,12.37
2019-03-27T09:00:49.749Z,11.68
2019-03-27T09:03:18.511Z,9.50
2019-03-27T09:05:46.965Z,9.65
2019-03-27T09:08:15.528Z,10.75
2019-03-27T09:10:43.959Z,8.48
2019-03-27T09:13:12.403Z,8.53
2019-03-27T09:15:41.223Z,10.72
2019-03-27T09:18:09.653Z,8.03
2019-03-27T09:20:38.074Z,13.78
2019-03-27T09:23:06.888Z,8.68
2019-03-27T09:25:35.305Z,9.08
2019-03-27T09:28:03.810Z,9.10
2019-03-27T09:30:32.277Z,11.20
2019-03-27T09:33:00.709Z,8.90
2019-03-27T09:35:29.143Z,9.90
2019-03-27T09:37:58.051Z,8.15
2019-03-27T09:40:26.545Z,12.57
2019-03-27T09:42:54.996Z,9.30
2019-03-27T09:45:23.468Z,7.53
2019-03-27T09:47:52.040Z,9.40
2019-03-27T09:50:20.506Z,7.60
2019-03-27T09:52:49.002Z,5.60
2019-03-27T09:55:17.416Z,7.58
2019-03-27T09:57:45.859Z,6.45
2019-03-27T10:00:14.938Z,8.88
2019-03-27T10:02:43.418Z,8.48
2019-03-27T10:05:11.974Z,7.23
2019-03-27T10:07:40.484Z,8.20
2019-03-27T10:10:09.136Z,6.08
2019-03-27T10:12:37.565Z,8.48
2019-03-27T10:15:08.034Z,8.68
2019-03-27T10:17:36.514Z,9.20
2019-03-27T10:20:05.717Z,11.43
2019-03-27T10:22:34.146Z,7.15
2019-03-27T10:25:02.642Z,8.75
2019-03-27T10:27:31.081Z,5.42
2019-03-27T10:29:59.519Z,9.20
2019-03-27T10:32:27.954Z,6.95
2019-03-27T10:34:56.796Z,8.20
2019-03-27T10:37:25.299Z,7.05
2019-03-27T10:39:53.718Z,8.75
2019-03-27T10:42:22.149Z,6.70
2019-03-27T10:44:50.574Z,6.50
2019-03-27T10:47:19.033Z,5.90
2019-03-27T10:49:47.534Z,5.00
2019-03-27T10:52:15.972Z,5.97
2019-03-27T10:54:44.397Z,6.87
2019-03-27T10:57:12.820Z,4.45
2019-03-27T10:59:41.250Z,8.93
2019-03-27T11:02:09.761Z,7.35
2019-03-27T11:04:38.189Z,6.83
2019-03-27T11:07:06.628Z,7.15
2019-03-27T11:09:35.057Z,8.65
2019-03-27T11:12:03.485Z,10.73
2019-03-27T11:14:37.982Z,8.08
2019-03-27T11:17:02.187Z,7.10
2019-03-27T11:19:33.427Z,4.20
2019-03-27T11:22:00.769Z,5.80
2019-03-27T11:24:29.197Z,9.68
2019-03-27T11:26:57.646Z,9.45
2019-03-27T11:29:26.077Z,5.00
2019-03-27T11:31:54.537Z,5.77
2019-03-27T11:34:23.056Z,8.73
2019-03-27T11:36:51.461Z,8.45
2019-03-27T11:39:20.246Z,7.85
2019-03-27T11:41:48.663Z,5.80
2019-03-27T11:44:17.116Z,8.35
2019-03-27T11:46:45.550Z,8.93
2019-03-27T11:49:14.004Z,7.43
2019-03-27T11:51:42.802Z,7.45
2019-03-27T11:54:11.224Z,10.30
2019-03-27T11:56:40.026Z,7.12
2019-03-27T11:59:08.570Z,7.33
2019-03-27T12:01:41.965Z,10.00
2019-03-27T12:04:07.149Z,11.90
2019-03-27T12:06:35.576Z,7.40
2019-03-27T12:09:06.044Z,7.83
2019-03-27T12:11:34.787Z,6.70
2019-03-27T12:14:03.214Z,7.22
2019-03-27T12:16:31.637Z,11.03
2019-03-27T12:19:00.063Z,9.15
2019-03-27T12:21:28.545Z,9.48
2019-03-27T12:23:57.805Z,11.18
2019-03-27T12:26:26.228Z,10.07
2019-03-27T12:28:54.657Z,7.40
2019-03-27T12:31:23.088Z,7.42
2019-03-27T12:33:51.521Z,7.30
2019-03-27T12:36:19.993Z,8.30
2019-03-27T12:38:48.435Z,12.40
2019-03-27T12:41:16.933Z,8.83
2019-03-27T12:43:45.389Z,9.85
2019-03-27T12:46:13.887Z,9.78
2019-03-27T12:48:42.373Z,10.85
2019-03-27T12:51:13.208Z,10.65
2019-03-27T12:53:41.363Z,11.35
2019-03-27T12:56:09.798Z,12.03
2019-03-27T12:58:38.217Z,10.90
2019-03-27T13:01:06.739Z,10.23
2019-03-27T13:03:35.177Z,9.98
2019-03-27T13:06:03.649Z,9.25
2019-03-27T13:08:32.394Z,10.43
2019-03-27T13:11:00.823Z,11.12
2019-03-27T13:13:29.293Z,9.70
2019-03-27T13:15:57.718Z,11.22
2019-03-27T13:18:26.208Z,10.90
2019-03-27T13:20:54.691Z,11.53
2019-03-27T13:23:23.178Z,12.10
2019-03-27T13:25:51.790Z,11.22
2019-03-27T13:28:20.257Z,10.80
2019-03-27T13:30:48.774Z,12.90
2019-03-27T13:33:17.209Z,14.28
2019-03-27T13:35:45.644Z,14.30
2019-03-27T13:38:14.080Z,13.23
2019-03-27T13:40:42.649Z,14.68
2019-03-27T13:43:11.142Z,13.88
2019-03-27T13:45:39.561Z,14.33
2019-03-27T13:48:07.997Z,10.88
2019-03-27T13:50:36.452Z,12.25
2019-03-27T13:53:05.397Z,13.20
2019-03-27T13:55:35.310Z,13.50
2019-03-27T13:58:04.000Z,12.83
2019-03-27T14:00:32.476Z,12.73
2019-03-27T14:03:00.961Z,10.93
2019-03-27T14:05:29.394Z,7.72
2019-03-27T14:07:57.832Z,6.87
2019-03-27T14:10:26.285Z,8.05
2019-03-27T14:12:54.753Z,8.50
2019-03-27T14:15:23.257Z,7.00
2019-03-27T14:17:51.684Z,6.10
2019-03-27T14:20:20.342Z,6.10
2019-03-27T14:22:48.761Z,5.50
2019-03-27T14:25:17.945Z,5.90
2019-03-27T14:27:46.704Z,5.80
2019-03-27T14:30:18.542Z,6.28
2019-03-27T14:32:46.969Z,8.55
2019-03-27T14:35:15.673Z,9.65
2019-03-27T14:37:44.111Z,9.58
2019-03-27T14:40:13.214Z,11.05
2019-03-27T14:42:41.628Z,7.30
2019-03-27T14:45:10.595Z,6.95
2019-03-27T14:47:39.013Z,5.95
2019-03-27T14:50:08.681Z,6.40
2019-03-27T14:52:37.165Z,5.40
2019-03-27T14:55:07.946Z,5.47
2019-03-27T14:57:36.984Z,5.62
2019-03-27T15:00:09.716Z,5.80
2019-03-27T15:02:38.205Z,5.17
2019-03-27T15:05:07.777Z,5.20
2019-03-27T15:07:36.205Z,5.37
2019-03-27T15:10:06.772Z,5.40
2019-03-27T15:12:35.208Z,4.90
2019-03-27T15:15:05.949Z,5.10
2019-03-27T15:17:34.432Z,5.60
2019-03-27T15:20:03.126Z,5.60
2019-03-27T15:22:31.550Z,6.17
2019-03-27T15:24:59.974Z,5.70
2019-03-27T15:27:28.410Z,5.40
2019-03-27T15:29:56.831Z,5.65
2019-03-27T15:32:25.622Z,5.30
2019-03-27T15:34:54.035Z,5.30
2019-03-27T15:37:22.474Z,6.00
2019-03-27T15:39:50.885Z,6.50
2019-03-27T15:42:19.318Z,6.00
2019-03-27T15:44:49.742Z,6.97
2019-03-27T15:47:18.136Z,6.40
2019-03-27T15:49:46.589Z,6.97
2019-03-27T15:52:15.033Z,7.00
2019-03-27T15:54:43.454Z,7.33
2019-03-27T15:57:11.977Z,8.00
2019-03-27T15:59:40.410Z,8.75
2019-03-27T16:02:09.108Z,8.30
2019-03-27T16:04:38.907Z,8.73
2019-03-27T16:07:07.566Z,8.90
2019-03-27T16:09:36.003Z,9.68
2019-03-27T16:12:04.421Z,9.40
2019-03-27T16:14:32.849Z,10.50
2019-03-27T16:17:13.251Z,9.70
2019-03-27T16:19:31.778Z,10.30
2019-03-27T16:22:00.205Z,11.00
2019-03-27T16:24:28.647Z,11.15
2019-03-27T16:27:04.405Z,11.88
2019-03-27T16:29:27.245Z,11.85
2019-03-27T16:31:55.681Z,13.18
2019-03-27T16:34:25.293Z,13.83
2019-03-27T16:36:54.291Z,13.10
2019-03-27T16:39:22.856Z,13.18
2019-03-27T16:41:51.277Z,13.18
2019-03-27T16:44:19.706Z,13.45
2019-03-27T16:46:48.141Z,14.15
2019-03-27T16:49:16.579Z,14.55
2019-03-27T16:51:45.014Z,14.60
2019-03-27T16:54:13.456Z,15.05
2019-03-27T16:56:41.890Z,15.95
2019-03-27T16:59:10.337Z,14.40
2019-03-27T17:01:38.765Z,14.30
2019-03-27T17:04:07.214Z,14.93
2019-03-27T17:06:35.637Z,14.60
2019-03-27T17:09:06.517Z,14.73
2019-03-27T17:11:35.265Z,14.93
2019-03-27T17:14:03.713Z,14.95
2019-03-27T17:16:32.130Z,14.45
2019-03-27T17:19:00.565Z,15.30
2019-03-27T17:21:29.011Z,14.50
2019-03-27T17:23:57.433Z,15.75
2019-03-27T17:26:25.865Z,15.40
2019-03-27T17:28:54.306Z,14.60
2019-03-27T17:31:22.730Z,14.63
2019-03-27T17:33:51.165Z,14.58
2019-03-27T17:36:19.606Z,12.58
2019-03-27T17:38:48.053Z,13.28
2019-03-27T17:41:16.498Z,13.67
2019-03-27T17:43:44.941Z,11.75
2019-03-27T17:46:13.364Z,12.18
2019-03-27T17:48:41.797Z,12.25
2019-03-27T17:51:10.251Z,12.43
2019-03-27T17:53:38.686Z,11.85
2019-03-27T17:56:07.113Z,11.10
2019-03-27T17:58:35.565Z,10.40
2019-03-27T18:01:04.721Z,9.95
2019-03-27T18:03:33.157Z,10.30
2019-03-27T18:06:01.591Z,11.23
2019-03-27T18:08:30.022Z,11.48
2019-03-27T18:10:58.444Z,10.98
2019-03-27T18:13:26.889Z,11.57
2019-03-27T18:15:55.324Z,11.40
2019-03-27T18:18:23.752Z,13.60
2019-03-27T18:20:52.185Z,13.93
2019-03-27T18:23:20.609Z,14.58
2019-03-27T18:25:49.053Z,15.50
2019-03-27T18:28:17.474Z,16.12
2019-03-27T18:30:45.920Z,15.80
2019-03-27T18:33:14.529Z,16.30
2019-03-27T18:35:43.294Z,17.20
2019-03-27T18:38:11.720Z,17.50
2019-03-27T18:40:40.148Z,17.02
2019-03-27T18:43:08.577Z,17.48
2019-03-27T18:45:37.010Z,18.10
2019-03-27T18:48:05.454Z,17.45
2019-03-27T18:50:33.893Z,17.65
2019-03-27T18:53:02.316Z,17.67
2019-03-27T18:55:30.754Z,16.97
2019-03-27T18:58:00.626Z,15.60
2019-03-27T19:00:29.523Z,16.07
2019-03-27T19:02:58.096Z,14.68
2019-03-27T19:05:27.003Z,15.28
2019-03-27T19:07:55.458Z,16.07
2019-03-27T19:10:23.943Z,16.27
2019-03-27T19:12:54.393Z,14.55
2019-03-27T19:15:22.823Z,15.73
2019-03-27T19:17:51.276Z,15.35
2019-03-27T19:20:19.702Z,13.80
2019-03-27T19:22:48.146Z,16.65
2019-03-27T19:25:16.573Z,15.48
2019-03-27T19:27:45.014Z,17.15
2019-03-27T19:30:14.844Z,16.10
2019-03-27T19:32:43.577Z,14.83
2019-03-27T19:35:12.683Z,14.38
2019-03-27T19:37:41.209Z,16.95
2019-03-27T19:40:10.041Z,15.95
2019-03-27T19:42:38.551Z,14.33
2019-03-27T19:45:07.191Z,15.32
2019-03-27T19:47:35.710Z,14.55
2019-03-27T19:50:06.248Z,13.58
2019-03-27T19:52:34.689Z,14.10
2019-03-27T19:55:03.207Z,15.58
2019-03-27T19:57:31.649Z,13.78
2019-03-27T20:00:00.438Z,13.70
2019-03-27T20:02:28.877Z,17.67
2019-03-27T20:04:57.300Z,15.43
2019-03-27T20:07:35.312Z,17.80
2019-03-27T20:09:55.884Z,15.40
2019-03-27T20:12:24.329Z,17.30
2019-03-27T20:14:52.765Z,16.32
2019-03-27T20:17:21.198Z,15.03
2019-03-27T20:19:49.621Z,14.55
2019-03-27T20:22:18.049Z,17.00
2019-03-27T20:24:46.497Z,16.02
2019-03-27T20:27:14.929Z,17.15
2019-03-27T20:29:46.351Z,16.57
2019-03-27T20:32:13.517Z,18.85
2019-03-27T20:34:41.957Z,18.37
2019-03-27T20:37:10.394Z,18.37
2019-03-27T20:39:38.832Z,21.15
2019-03-27T20:42:07.258Z,19.90
2019-03-27T20:44:35.695Z,20.55
2019-03-27T20:47:04.430Z,20.70
2019-03-27T20:49:32.878Z,21.00
2019-03-27T20:52:01.304Z,24.92
2019-03-27T20:54:29.733Z,20.25
2019-03-27T20:56:58.176Z,22.67
2019-03-27T20:59:26.616Z,20.77
2019-03-27T21:01:55.040Z,22.02
2019-03-27T21:04:23.480Z,25.00
2019-03-27T21:06:52.170Z,23.42
2019-03-27T21:09:20.957Z,26.25
2019-03-27T21:11:49.647Z,20.93
2019-03-27T21:14:18.144Z,22.75
2019-03-27T21:16:46.569Z,24.07
2019-03-27T21:19:15.008Z,26.52
2019-03-27T21:21:43.443Z,22.87
2019-03-27T21:24:11.884Z,22.48
2019-03-27T21:26:40.308Z,23.27
2019-03-27T21:29:08.790Z,27.50
2019-03-27T21:31:37.217Z,19.97
2019-03-27T21:34:05.658Z,21.68
2019-03-27T21:36:34.082Z,23.77
2019-03-27T21:39:02.537Z,21.97
2019-03-27T21:41:30.956Z,21.60
2019-03-27T21:43:59.397Z,22.30
2019-03-27T21:46:27.820Z,21.03
2019-03-27T21:48:56.537Z,24.85
2019-03-27T21:51:24.964Z,22.32
2019-03-27T21:53:53.396Z,25.72
2019-03-27T21:56:21.826Z,21.23
2019-03-27T21:58:50.558Z,27.17
2019-03-27T22:01:18.982Z,23.75
2019-03-27T22:03:47.820Z,24.10
2019-03-27T22:06:16.324Z,22.30
2019-03-27T22:08:44.758Z,23.95
2019-03-27T22:11:13.370Z,23.10
2019-03-27T22:13:41.872Z,25.10
2019-03-27T22:16:10.312Z,21.00
2019-03-27T22:18:38.733Z,25.23
2019-03-27T22:21:07.164Z,21.85
2019-03-27T22:23:35.584Z,22.17
2019-03-27T22:26:04.025Z,26.62
2019-03-27T22:28:32.460Z,22.70
2019-03-27T22:31:00.899Z,21.33
2019-03-27T22:33:29.316Z,22.45
2019-03-27T22:35:57.758Z,23.15
2019-03-27T22:38:26.184Z,18.75
2019-03-27T22:40:54.621Z,21.68
2019-03-27T22:43:23.057Z,21.60
2019-03-27T22:45:51.492Z,24.43
2019-03-27T22:48:19.928Z,21.30
2019-03-27T22:50:48.360Z,22.07
2019-03-27T22:53:16.786Z,25.68
2019-03-27T22:55:50.127Z,28.20
2019-03-27T22:58:15.376Z,20.62
2019-03-27T23:00:45.454Z,22.60
2019-03-27T23:03:18.393Z,21.85
2019-03-27T23:05:45.090Z,20.23
2019-03-27T23:08:13.518Z,22.65
2019-03-27T23:10:42.225Z,24.35
2019-03-27T23:13:10.652Z,27.98
2019-03-27T23:15:39.090Z,24.37
2019-03-27T23:18:07.524Z,21.50
2019-03-27T23:20:35.965Z,23.52
2019-03-27T23:23:04.400Z,20.15
2019-03-27T23:25:32.820Z,23.83
2019-03-27T23:28:01.690Z,25.08
2019-03-27T23:30:30.141Z,23.25
2019-03-27T23:32:58.572Z,19.17
2019-03-27T23:35:27.010Z,23.85
2019-03-27T23:37:55.437Z,22.50
2019-03-27T23:40:23.873Z,22.20
2019-03-27T23:42:52.569Z,25.50
2019-03-27T23:45:21.004Z,23.92
2019-03-27T23:47:49.444Z,24.65
2019-03-27T23:50:17.872Z,22.80
2019-03-27T23:52:46.310Z,25.08
2019-03-27T23:55:14.738Z,19.35
2019-03-27T23:57:43.173Z,22.77
